Terminal Aerodrome Forecast
Issued by NWS

Home | Current Version | Previous Version | Text Only | Print | Product List | Glossary On
Versions: 1 2 3 4 5 6 7 8 9 10 11 12 13 14 15 16 17 18
000
FTPQ31 PGUM 232247 RRF
TAFTPN
TAF
PTPN 232247Z 2323/2418 14007KT P6SM VCSH FEW018 SCT040 SCT140=

USA.gov is the U.S. government's official web portal to all federal, state and local government web resources and services.